createdAt,value
2023-02-11T00:00:02.700Z,59.29
2023-02-11T00:03:21.463Z,59.45
2023-02-11T00:06:08.802Z,58.53
2023-02-11T00:08:38.471Z,57.82
2023-02-11T00:11:19.375Z,57.94
2023-02-11T00:13:51.666Z,58.08
2023-02-11T00:16:26.360Z,58.31
2023-02-11T00:19:03.131Z,58.53
2023-02-11T00:21:33.575Z,58.52
2023-02-11T00:24:05.327Z,58.58
2023-02-11T00:26:35.274Z,58.74
2023-02-11T00:29:06.890Z,58.69
2023-02-11T00:35:48.826Z,59.11
2023-02-11T00:38:23.490Z,59.45
2023-02-11T00:40:55.709Z,59.66
2023-02-11T00:43:26.049Z,59.72
2023-02-11T00:46:31.327Z,59.77
2023-02-11T00:49:25.433Z,60.04
2023-02-11T00:52:10.352Z,60.09
2023-02-11T00:54:42.483Z,60.14
2023-02-11T00:57:18.719Z,60.51
2023-02-11T00:59:46.456Z,60.64
2023-02-11T01:02:24.108Z,60.74
2023-02-11T01:04:59.275Z,60.04
2023-02-11T01:07:29.504Z,59.40
2023-02-11T01:10:00.718Z,59.33
2023-02-11T01:12:36.687Z,59.61
2023-02-11T01:15:08.438Z,59.76
2023-02-11T01:17:43.390Z,59.80
2023-02-11T01:20:23.734Z,59.93
2023-02-11T01:23:00.372Z,59.92
2023-02-11T01:25:32.213Z,59.92
2023-02-11T01:28:28.541Z,60.17
2023-02-11T01:31:07.800Z,60.29
2023-02-11T01:34:00.497Z,60.49
2023-02-11T01:36:33.749Z,60.70
2023-02-11T01:39:08.139Z,60.65
2023-02-11T01:41:37.614Z,60.96
2023-02-11T01:44:55.487Z,61.01
2023-02-11T01:47:45.801Z,61.09
2023-02-11T01:50:17.488Z,61.38
2023-02-11T01:53:19.130Z,61.39
2023-02-11T01:56:17.495Z,60.94
2023-02-11T01:58:49.729Z,60.33
2023-02-11T02:01:20.753Z,60.85
2023-02-11T02:03:52.546Z,61.07
2023-02-11T02:06:55.916Z,61.28
2023-02-11T02:09:27.046Z,61.41
2023-02-11T02:11:58.814Z,61.58
2023-02-11T02:14:33.948Z,61.53
2023-02-11T02:17:31.964Z,61.70
2023-02-11T02:21:00.912Z,61.85
2023-02-11T02:23:51.745Z,62.01
2023-02-11T02:26:40.781Z,62.11
2023-02-11T02:29:51.620Z,62.19
2023-02-11T02:32:28.342Z,62.31
2023-02-11T02:35:10.984Z,62.54
2023-02-11T02:38:05.828Z,62.51
2023-02-11T02:41:05.925Z,62.65
2023-02-11T02:43:42.094Z,62.72
2023-02-11T02:46:30.465Z,62.25
2023-02-11T02:49:05.985Z,61.57
2023-02-11T02:52:25.903Z,61.57
2023-02-11T02:55:21.151Z,61.92
2023-02-11T02:58:23.467Z,62.35
2023-02-11T03:01:29.894Z,62.60
2023-02-11T03:04:44.959Z,62.97
2023-02-11T03:07:52.630Z,63.09
2023-02-11T03:10:44.663Z,63.23
2023-02-11T03:13:16.584Z,63.28
2023-02-11T03:15:56.848Z,63.35
2023-02-11T03:19:01.228Z,63.52
2023-02-11T03:21:35.349Z,63.64
2023-02-11T03:24:10.863Z,63.82
2023-02-11T03:26:56.410Z,64.08
2023-02-11T03:30:18.974Z,64.23
2023-02-11T03:33:09.037Z,64.23
2023-02-11T03:35:42.013Z,63.87
2023-02-11T03:38:26.697Z,63.49
2023-02-11T03:40:58.944Z,63.22
2023-02-11T03:43:36.814Z,63.54
2023-02-11T03:46:07.408Z,63.82
2023-02-11T03:48:44.414Z,64.02
2023-02-11T03:51:15.934Z,64.06
2023-02-11T03:53:51.374Z,64.06
2023-02-11T03:56:27.947Z,64.26
2023-02-11T03:59:12.490Z,64.27
2023-02-11T04:01:46.763Z,64.40
2023-02-11T04:04:19.281Z,64.99
2023-02-11T04:06:52.566Z,64.71
2023-02-11T04:09:26.529Z,65.03
2023-02-11T04:12:04.673Z,64.98
2023-02-11T04:15:02.020Z,65.47
2023-02-11T04:17:33.355Z,65.43
2023-02-11T04:20:04.834Z,64.89
2023-02-11T04:22:40.271Z,64.49
2023-02-11T04:25:18.152Z,64.32
2023-02-11T04:27:54.049Z,64.56
2023-02-11T04:30:28.045Z,64.87
2023-02-11T04:32:58.602Z,64.65
2023-02-11T04:35:31.375Z,64.69
2023-02-11T04:38:03.527Z,64.73
2023-02-11T04:40:36.135Z,64.82
2023-02-11T04:43:17.967Z,65.26
2023-02-11T04:46:13.163Z,65.45
2023-02-11T04:48:49.360Z,65.59
2023-02-11T04:51:21.198Z,65.86
2023-02-11T04:53:53.558Z,66.15
2023-02-11T04:56:23.478Z,66.28
2023-02-11T04:58:54.643Z,66.34
2023-02-11T05:01:23.500Z,65.92
2023-02-11T05:03:53.439Z,65.45
2023-02-11T05:06:22.924Z,65.34
2023-02-11T05:09:19.780Z,65.34
2023-02-11T05:11:50.458Z,65.54
2023-02-11T05:14:29.074Z,65.73
2023-02-11T05:16:59.359Z,65.94
2023-02-11T05:19:31.463Z,65.94
2023-02-11T05:22:03.815Z,66.02
2023-02-11T05:24:38.613Z,66.16
2023-02-11T05:27:17.800Z,66.40
2023-02-11T05:29:51.644Z,66.52
2023-02-11T05:32:29.393Z,66.63
2023-02-11T05:35:03.073Z,66.92
2023-02-11T05:37:39.289Z,66.66
2023-02-11T05:40:42.260Z,66.47
2023-02-11T05:43:18.063Z,66.33
2023-02-11T05:45:58.609Z,66.46
2023-02-11T05:48:31.312Z,66.69
2023-02-11T05:51:04.324Z,67.13
2023-02-11T05:53:41.886Z,67.13
2023-02-11T05:57:03.206Z,67.24
2023-02-11T06:00:20.740Z,67.52
2023-02-11T06:02:48.955Z,67.69
2023-02-11T06:05:27.859Z,67.82
2023-02-11T06:08:07.134Z,67.66
2023-02-11T06:10:38.070Z,67.28
2023-02-11T06:13:38.641Z,67.14
2023-02-11T06:16:34.439Z,66.87
2023-02-11T06:19:09.916Z,66.61
2023-02-11T06:21:51.734Z,66.71
2023-02-11T06:24:54.988Z,66.77
2023-02-11T06:27:57.393Z,66.79
2023-02-11T06:30:54.565Z,66.90
2023-02-11T06:33:59.724Z,66.84
2023-02-11T06:36:43.683Z,67.11
2023-02-11T06:39:20.270Z,67.23
2023-02-11T06:41:54.608Z,67.40
2023-02-11T06:44:30.571Z,67.15
2023-02-11T06:47:07.433Z,66.62
2023-02-11T06:50:06.209Z,66.29
2023-02-11T06:52:37.374Z,66.12
2023-02-11T06:55:16.135Z,66.22
2023-02-11T06:57:45.770Z,66.43
2023-02-11T07:00:24.204Z,66.45
2023-02-11T07:02:56.616Z,66.26
2023-02-11T07:05:27.241Z,66.17
2023-02-11T07:08:28.969Z,66.35
2023-02-11T07:11:34.484Z,66.39
2023-02-11T07:14:12.865Z,66.56
2023-02-11T07:16:41.752Z,66.65
2023-02-11T07:19:12.431Z,66.77
2023-02-11T07:21:45.270Z,66.40
2023-02-11T07:24:25.111Z,66.17
2023-02-11T07:27:03.854Z,66.09
2023-02-11T07:29:33.152Z,65.90
2023-02-11T07:32:06.468Z,65.88
2023-02-11T07:34:41.400Z,66.08
2023-02-11T07:37:18.661Z,66.13
2023-02-11T07:40:40.827Z,66.15
2023-02-11T07:43:18.141Z,66.47
2023-02-11T07:45:57.477Z,66.54
2023-02-11T07:48:36.619Z,66.76
2023-02-11T07:54:30.674Z,66.59
2023-02-11T07:57:37.370Z,66.49
2023-02-11T08:00:09.958Z,66.16
2023-02-11T08:03:33.642Z,66.17
2023-02-11T08:06:20.657Z,66.27
2023-02-11T08:09:44.879Z,66.38
2023-02-11T08:12:26.560Z,66.08
2023-02-11T08:15:07.114Z,66.09
2023-02-11T08:17:45.812Z,66.11
2023-02-11T08:20:46.918Z,66.14
2023-02-11T08:23:44.564Z,66.22
2023-02-11T08:26:21.653Z,66.27
2023-02-11T08:28:54.150Z,66.46
2023-02-11T08:31:28.869Z,66.12
2023-02-11T08:34:22.502Z,65.37
2023-02-11T08:37:09.536Z,65.06
2023-02-11T08:39:59.715Z,65.14
2023-02-11T08:42:38.407Z,65.02
2023-02-11T08:45:07.678Z,65.04
2023-02-11T08:48:28.200Z,65.20
2023-02-11T08:51:20.685Z,64.82
2023-02-11T08:53:52.293Z,64.64
2023-02-11T08:57:20.179Z,63.71
2023-02-11T08:59:56.568Z,63.30
2023-02-11T09:02:49.826Z,63.09
2023-02-11T09:05:22.276Z,63.20
2023-02-11T09:08:51.362Z,63.05
2023-02-11T09:12:37.854Z,62.30
2023-02-11T09:15:37.779Z,62.03
2023-02-11T09:18:58.157Z,61.66
2023-02-11T09:21:27.606Z,61.67
2023-02-11T09:24:00.357Z,61.48
2023-02-11T09:26:33.954Z,61.79
2023-02-11T09:33:39.129Z,62.28
2023-02-11T09:36:12.982Z,62.70
2023-02-11T09:38:49.743Z,62.42
2023-02-11T09:42:02.455Z,62.56
2023-02-11T09:45:15.286Z,62.13
2023-02-11T09:48:10.172Z,62.47
2023-02-11T09:50:48.159Z,61.99
2023-02-11T09:53:28.196Z,61.99
2023-02-11T09:56:13.175Z,61.32
2023-02-11T09:59:20.144Z,61.05
2023-02-11T10:02:41.769Z,60.50
2023-02-11T10:05:53.226Z,60.38
2023-02-11T10:08:33.205Z,60.19
2023-02-11T10:11:54.590Z,59.71
2023-02-11T10:16:02.113Z,59.33
2023-02-11T10:18:55.376Z,58.80
2023-02-11T10:21:43.230Z,58.47
2023-02-11T10:24:20.392Z,58.02
2023-02-11T10:27:32.715Z,57.95
2023-02-11T10:30:11.995Z,57.55
2023-02-11T10:33:36.686Z,58.07
2023-02-11T10:36:19.221Z,58.06
2023-02-11T10:38:47.090Z,57.67
2023-02-11T10:41:25.915Z,57.82
2023-02-11T10:44:00.129Z,57.62
2023-02-11T10:46:39.627Z,57.54
2023-02-11T10:49:34.091Z,57.24
2023-02-11T10:52:30.455Z,57.46
2023-02-11T10:55:05.852Z,57.24
2023-02-11T10:58:00.326Z,57.23
2023-02-11T11:00:57.379Z,57.35
2023-02-11T11:03:35.912Z,57.04
2023-02-11T11:06:09.318Z,57.08
2023-02-11T11:08:50.562Z,57.09
2023-02-11T11:11:29.290Z,56.54
2023-02-11T11:14:05.109Z,56.88
2023-02-11T11:16:36.634Z,56.92
2023-02-11T11:19:20.809Z,56.81
2023-02-11T11:21:57.258Z,56.74
2023-02-11T11:24:57.338Z,57.13
2023-02-11T11:27:39.831Z,57.64
2023-02-11T11:30:17.001Z,57.83
2023-02-11T11:32:54.524Z,57.95
2023-02-11T11:39:35.948Z,58.35
2023-02-11T11:42:34.222Z,58.27
2023-02-11T11:45:35.243Z,58.42
2023-02-11T11:48:23.368Z,58.67
2023-02-11T11:50:55.204Z,58.79
2023-02-11T11:54:06.793Z,58.95
2023-02-11T11:56:58.818Z,59.05
2023-02-11T11:59:31.039Z,59.13
2023-02-11T12:02:38.817Z,59.29
2023-02-11T12:05:24.925Z,58.66
2023-02-11T12:08:53.788Z,58.79
2023-02-11T12:11:43.670Z,59.30
2023-02-11T12:14:55.014Z,59.69
2023-02-11T12:18:13.724Z,59.78
2023-02-11T12:22:03.968Z,60.22
2023-02-11T12:25:28.626Z,60.63
2023-02-11T12:28:33.550Z,60.50
2023-02-11T12:31:35.195Z,60.18
2023-02-11T12:34:59.419Z,60.68
2023-02-11T12:38:17.990Z,60.47
2023-02-11T12:40:51.442Z,60.60
2023-02-11T12:43:42.693Z,59.89
2023-02-11T12:46:51.146Z,59.63
2023-02-11T12:49:39.091Z,59.76
2023-02-11T12:52:49.249Z,59.58
2023-02-11T12:55:27.455Z,59.93
2023-02-11T12:58:02.921Z,60.48
2023-02-11T13:00:58.810Z,60.69
2023-02-11T13:04:10.738Z,60.86
2023-02-11T13:07:21.436Z,61.11
2023-02-11T13:09:55.033Z,60.85
2023-02-11T13:12:46.059Z,61.08
2023-02-11T13:15:17.981Z,61.48
2023-02-11T13:18:12.852Z,61.66
2023-02-11T13:21:01.325Z,61.30
2023-02-11T13:23:41.010Z,61.10
2023-02-11T13:26:42.253Z,61.22
2023-02-11T13:29:30.741Z,61.68
2023-02-11T13:32:16.958Z,62.07
2023-02-11T13:35:02.889Z,62.62
2023-02-11T13:37:57.710Z,62.56
2023-02-11T13:40:59.331Z,62.68
2023-02-11T13:43:44.150Z,62.82
2023-02-11T13:46:19.704Z,62.35
2023-02-11T13:49:01.111Z,62.00
2023-02-11T13:51:54.661Z,62.44
2023-02-11T13:54:39.685Z,62.57
2023-02-11T13:57:21.494Z,62.59
2023-02-11T13:59:52.034Z,63.01
2023-02-11T14:03:17.381Z,62.72
2023-02-11T14:06:39.339Z,63.11
2023-02-11T14:09:18.390Z,63.22
2023-02-11T14:12:40.892Z,63.26
2023-02-11T14:15:13.808Z,63.14
2023-02-11T14:17:55.976Z,63.44
2023-02-11T14:20:35.916Z,63.55
2023-02-11T14:23:07.532Z,63.77
2023-02-11T14:25:40.630Z,64.15
2023-02-11T14:37:23.941Z,65.11
2023-02-11T14:40:34.605Z,64.93
2023-02-11T14:43:23.071Z,64.82
2023-02-11T14:50:00.049Z,65.77
2023-02-11T14:53:04.202Z,66.31
2023-02-11T14:55:52.493Z,66.22
2023-02-11T14:58:38.564Z,67.09
2023-02-11T15:01:29.078Z,66.46
2023-02-11T15:04:02.480Z,66.53
2023-02-11T15:06:51.192Z,66.54
2023-02-11T15:10:05.037Z,66.56
2023-02-11T15:12:49.684Z,67.23
2023-02-11T15:15:21.885Z,67.75
2023-02-11T15:18:01.400Z,67.96
2023-02-11T15:20:35.634Z,67.89
2023-02-11T15:26:35.396Z,68.04
2023-02-11T15:29:16.786Z,67.06
2023-02-11T15:32:32.849Z,66.87
2023-02-11T15:35:08.070Z,67.23
2023-02-11T15:37:45.609Z,67.47
2023-02-11T15:40:18.978Z,67.90
2023-02-11T15:43:16.135Z,68.44
2023-02-11T15:53:48.580Z,69.14
2023-02-11T15:56:24.516Z,68.44
2023-02-11T15:58:57.748Z,68.27
2023-02-11T16:01:39.948Z,68.75
2023-02-11T16:04:23.084Z,69.03
2023-02-11T16:07:01.204Z,69.31
2023-02-11T16:09:43.108Z,69.17
2023-02-11T16:12:32.827Z,69.25
2023-02-11T16:15:31.980Z,69.56
2023-02-11T16:18:14.652Z,69.49
2023-02-11T16:20:47.854Z,69.30
2023-02-11T16:23:26.470Z,69.51
2023-02-11T16:33:34.627Z,69.98
2023-02-11T16:37:33.042Z,70.29
2023-02-11T16:40:11.528Z,70.38
2023-02-11T16:42:48.717Z,70.35
2023-02-11T16:45:26.968Z,70.09
2023-02-11T16:57:02.150Z,69.81
2023-02-11T17:05:54.630Z,71.05
2023-02-11T17:25:36.889Z,71.65
2023-02-11T17:28:15.090Z,71.68
2023-02-11T17:30:51.039Z,71.36
2023-02-11T17:33:26.892Z,71.45
2023-02-11T17:36:03.225Z,71.70
2023-02-11T17:38:35.541Z,71.61
2023-02-11T17:41:19.304Z,71.48
2023-02-11T17:44:06.404Z,71.28
2023-02-11T17:47:11.689Z,71.12
2023-02-11T17:49:46.958Z,70.81
2023-02-11T17:52:28.277Z,71.13
2023-02-11T17:54:58.810Z,71.04
2023-02-11T17:58:27.667Z,71.07
2023-02-11T18:01:04.621Z,70.19
2023-02-11T18:03:58.854Z,69.51
2023-02-11T18:06:37.076Z,70.43
2023-02-11T18:09:36.724Z,70.41
2023-02-11T18:12:25.771Z,70.70
2023-02-11T18:14:58.665Z,70.88
2023-02-11T18:17:58.784Z,69.61
2023-02-11T18:20:37.699Z,69.23
2023-02-11T18:23:08.537Z,69.49
2023-02-11T18:25:54.405Z,70.12
2023-02-11T18:28:27.121Z,70.30
2023-02-11T18:31:13.607Z,70.02
2023-02-11T18:33:47.486Z,70.28
2023-02-11T18:36:28.570Z,69.81
2023-02-11T18:39:05.089Z,68.24
2023-02-11T18:42:03.985Z,68.28
2023-02-11T18:45:31.840Z,68.80
2023-02-11T18:48:21.906Z,68.87
2023-02-11T18:50:55.969Z,68.83
2023-02-11T18:53:38.008Z,68.85
2023-02-11T18:56:15.880Z,69.06
2023-02-11T18:58:52.531Z,68.10
2023-02-11T19:02:02.654Z,67.22
2023-02-11T19:04:56.398Z,67.61
2023-02-11T19:07:58.939Z,67.58
2023-02-11T19:11:19.359Z,67.63
2023-02-11T19:14:00.030Z,67.88
2023-02-11T19:16:45.212Z,67.70
2023-02-11T19:19:24.138Z,67.05
2023-02-11T19:22:54.841Z,66.42
2023-02-11T19:25:35.929Z,66.57
2023-02-11T19:32:52.396Z,66.76
2023-02-11T19:35:46.356Z,67.14
2023-02-11T19:38:49.192Z,66.66
2023-02-11T19:42:15.895Z,65.70
2023-02-11T19:44:49.675Z,65.38
2023-02-11T19:47:30.121Z,65.62
2023-02-11T19:50:28.403Z,65.63
2023-02-11T19:53:34.583Z,65.81
2023-02-11T19:56:56.069Z,65.81
2023-02-11T19:59:57.476Z,66.04
2023-02-11T20:02:50.607Z,64.97
2023-02-11T20:05:25.490Z,64.76
2023-02-11T20:09:18.076Z,64.87
2023-02-11T20:12:43.090Z,64.85
2023-02-11T20:23:00.090Z,64.67
2023-02-11T20:31:16.206Z,63.53
2023-02-11T20:34:20.154Z,63.12
2023-02-11T20:37:17.191Z,63.75
2023-02-11T20:44:17.304Z,65.28
2023-02-11T20:47:40.651Z,66.10
2023-02-11T20:51:43.732Z,66.85
2023-02-11T20:54:42.793Z,65.61
2023-02-11T20:57:17.710Z,65.13
2023-02-11T21:01:15.729Z,65.63
2023-02-11T21:04:02.270Z,65.30
2023-02-11T21:16:10.950Z,65.06
2023-02-11T21:19:00.957Z,63.93
2023-02-11T21:21:55.069Z,63.81
2023-02-11T21:25:16.172Z,64.26
2023-02-11T21:28:14.680Z,64.24
2023-02-11T21:38:14.272Z,64.85
2023-02-11T21:49:20.133Z,65.70
2023-02-11T21:53:22.038Z,66.85
2023-02-11T22:10:36.873Z,66.21
2023-02-11T22:13:31.728Z,66.67
2023-02-11T22:16:08.700Z,67.28
2023-02-11T22:23:24.325Z,67.14
2023-02-11T22:31:04.423Z,66.11
2023-02-11T22:34:28.844Z,65.83
2023-02-11T22:37:18.726Z,66.38
2023-02-11T22:40:29.038Z,66.37
2023-02-11T22:43:26.265Z,66.70
2023-02-11T22:45:59.746Z,66.92
2023-02-11T22:48:31.024Z,66.95
2023-02-11T22:51:15.282Z,67.03
2023-02-11T22:53:53.361Z,66.32
2023-02-11T22:56:25.145Z,66.18
2023-02-11T22:59:26.311Z,66.46
2023-02-11T23:02:02.118Z,66.43
2023-02-11T23:05:26.366Z,66.73
2023-02-11T23:08:39.959Z,66.97
2023-02-11T23:11:39.850Z,67.12
2023-02-11T23:14:14.455Z,66.36
2023-02-11T23:16:54.127Z,66.54
2023-02-11T23:19:31.534Z,67.26
2023-02-11T23:22:18.401Z,68.23
2023-02-11T23:25:14.540Z,69.11
2023-02-11T23:27:51.641Z,70.23
2023-02-11T23:35:04.662Z,72.07
2023-02-11T23:37:56.276Z,73.60
2023-02-11T23:41:00.343Z,74.88
2023-02-11T23:43:52.844Z,75.39
2023-02-11T23:47:01.074Z,75.51
2023-02-11T23:50:02.175Z,75.29
2023-02-11T23:53:17.243Z,76.15
2023-02-11T23:56:56.744Z,76.95
2023-02-11T23:59:31.125Z,76.88
